Time;durP1;ratioP1;P1;durP2;ratioP2;P2;SDS_P1;SDS_P2;PMS_P1;PMS_P2;Temp;Humidity;BMP_temperature;BMP_pressure;BME280_temperature;BME280_humidity;BME280_pressure;Samples;Min_cycle;Max_cycle;Signal;HPM_P1;HPM_P2
2023/02/09 00:00:05;;;;;;;81.85;37.35;;;-2.00;99.90;;;;;;5049212;28;21033;-46
2023/02/09 00:02:32;;;;;;;83.05;35.90;;;-2.00;99.90;;;;;;5044574;28;20048;-47
2023/02/09 00:04:58;;;;;;;83.40;36.65;;;-2.10;99.90;;;;;;5046692;28;20041;-47
2023/02/09 00:07:23;;;;;;;87.28;38.20;;;-2.10;99.90;;;;;;5047429;28;20055;-47
2023/02/09 00:09:50;;;;;;;78.43;35.97;;;-2.20;99.90;;;;;;5048586;28;20025;-48
2023/02/09 00:14:59;;;;;;;86.03;36.45;;;-2.20;99.90;;;;;;5046969;28;20371;-47
2023/02/09 00:17:25;;;;;;;80.97;36.65;;;-2.20;99.90;;;;;;5050951;28;20199;-48
2023/02/09 00:19:53;;;;;;;83.80;36.42;;;-2.30;99.90;;;;;;5050586;28;20024;-48
2023/02/09 00:22:19;;;;;;;80.07;36.60;;;-2.20;99.90;;;;;;5050563;28;20220;-46
2023/02/09 00:24:45;;;;;;;74.22;32.83;;;-2.30;99.90;;;;;;5050463;28;20387;-47
2023/02/09 00:27:10;;;;;;;75.82;33.53;;;-2.30;99.90;;;;;;5050451;28;20025;-48
2023/02/09 00:29:36;;;;;;;75.32;32.88;;;-2.30;99.90;;;;;;5048411;28;20288;-47
2023/02/09 00:32:01;;;;;;;83.85;36.53;;;-2.30;99.90;;;;;;5050757;28;20082;-47
2023/02/09 00:34:27;;;;;;;78.28;35.63;;;-2.30;99.90;;;;;;5054721;28;20056;-48
2023/02/09 00:36:52;;;;;;;81.63;35.53;;;-2.20;99.90;;;;;;5050207;28;20313;-47
2023/02/09 00:39:18;;;;;;;85.75;35.50;;;-2.10;99.90;;;;;;5051860;28;20501;-48
2023/02/09 00:44:28;;;;;;;76.55;34.05;;;-2.00;99.90;;;;;;5048013;28;20048;-47
2023/02/09 00:46:53;;;;;;;83.43;35.60;;;-2.00;99.90;;;;;;5048534;28;20021;-48
2023/02/09 00:49:19;;;;;;;74.85;33.22;;;-1.90;99.90;;;;;;5050040;28;20070;-47
2023/02/09 00:51:45;;;;;;;86.05;36.47;;;-1.90;99.90;;;;;;5050112;28;20498;-48
2023/02/09 00:54:12;;;;;;;78.78;35.15;;;-1.90;99.90;;;;;;5050038;28;20362;-50
2023/02/09 00:56:37;;;;;;;76.85;33.72;;;-1.90;99.90;;;;;;5049651;28;20017;-47
2023/02/09 00:59:03;;;;;;;80.25;35.20;;;-1.80;99.90;;;;;;5052353;28;20021;-47
2023/02/09 01:01:28;;;;;;;81.93;34.03;;;-1.80;99.90;;;;;;5031100;28;20035;-50
2023/02/09 01:03:55;;;;;;;72.72;32.60;;;-1.90;99.90;;;;;;5049989;28;20025;-51
2023/02/09 01:06:20;;;;;;;77.75;33.67;;;-1.90;99.90;;;;;;5047609;28;20014;-49
2023/02/09 01:08:46;;;;;;;79.97;34.55;;;-1.80;99.90;;;;;;5049895;28;20031;-51
2023/02/09 01:11:14;;;;;;;81.15;35.35;;;-1.90;99.90;;;;;;5050676;28;20025;-48
2023/02/09 01:13:40;;;;;;;74.70;34.42;;;-2.00;99.90;;;;;;5046979;28;20112;-47
2023/02/09 01:16:11;;;;;;;75.55;33.42;;;-2.00;99.90;;;;;;5049419;28;20060;-49
2023/02/09 01:18:37;;;;;;;75.13;32.65;;;-2.10;99.90;;;;;;5049526;28;20642;-48
2023/02/09 01:21:09;;;;;;;72.82;33.83;;;-2.10;99.90;;;;;;5049739;28;20033;-48
2023/02/09 01:23:34;;;;;;;76.85;32.17;;;-2.20;99.90;;;;;;5047989;28;20020;-47
2023/02/09 01:26:03;;;;;;;75.38;32.22;;;-2.20;99.90;;;;;;5048504;28;20037;-48
2023/02/09 01:28:28;;;;;;;82.13;35.28;;;-2.20;99.90;;;;;;5045599;28;20025;-49
2023/02/09 01:30:54;;;;;;;84.20;35.70;;;-2.20;99.90;;;;;;5049060;28;20470;-50
2023/02/09 01:33:19;;;;;;;76.88;33.70;;;-2.30;99.90;;;;;;5049241;28;20017;-49
2023/02/09 01:35:45;;;;;;;76.15;34.92;;;-2.30;99.90;;;;;;5048733;28;20030;-46
2023/02/09 01:38:10;;;;;;;79.75;35.13;;;-2.40;99.90;;;;;;5049159;28;20147;-47
2023/02/09 01:40:36;;;;;;;74.43;32.40;;;-2.40;99.90;;;;;;5049121;28;20056;-46
2023/02/09 01:43:01;;;;;;;83.07;33.85;;;-2.40;99.90;;;;;;5048805;28;20032;-47
2023/02/09 01:45:53;;;;;;;74.25;32.97;;;-2.50;99.90;;;;;;5048953;28;20025;-46
2023/02/09 01:48:27;;;;;;;80.90;33.50;;;-2.50;99.90;;;;;;5045132;28;20470;-48
2023/02/09 01:50:56;;;;;;;79.30;33.53;;;-2.50;99.90;;;;;;5044313;28;20208;-47
2023/02/09 01:53:23;;;;;;;75.78;32.63;;;-2.50;99.90;;;;;;5049229;28;20078;-46
2023/02/09 01:56:02;;;;;;;77.88;32.95;;;-2.60;99.90;;;;;;5045734;28;20116;-47
2023/02/09 01:58:28;;;;;;;79.25;32.42;;;-2.60;99.90;;;;;;5051549;28;20067;-47
2023/02/09 02:00:53;;;;;;;75.68;33.92;;;-2.60;99.90;;;;;;5048955;28;20024;-46
2023/02/09 02:03:23;;;;;;;78.55;32.92;;;-2.60;99.90;;;;;;5049249;28;20063;-47
2023/02/09 02:05:51;;;;;;;81.38;34.97;;;-2.70;99.90;;;;;;5045509;28;20021;-47
2023/02/09 02:08:30;;;;;;;82.03;35.28;;;-2.80;99.90;;;;;;5048771;28;20353;-47
2023/02/09 02:10:57;;;;;;;79.40;33.60;;;-2.90;99.90;;;;;;5044238;28;20373;-47
2023/02/09 02:13:22;;;;;;;79.00;33.72;;;-2.80;99.90;;;;;;5048300;28;20067;-49
2023/02/09 02:15:59;;;;;;;85.65;35.80;;;-2.80;99.90;;;;;;5048166;28;20036;-49
2023/02/09 02:19:00;;;;;;;81.70;35.97;;;-2.80;99.90;;;;;;5048500;28;20497;-47
2023/02/09 02:21:48;;;;;;;80.97;33.28;;;-2.80;99.90;;;;;;5048303;28;20029;-49
2023/02/09 02:24:25;;;;;;;75.22;32.50;;;-2.90;99.90;;;;;;5046483;28;20020;-50
2023/02/09 02:26:56;;;;;;;83.05;35.95;;;-2.90;99.90;;;;;;5042992;28;20020;-48
2023/02/09 02:29:49;;;;;;;79.15;34.17;;;-2.90;99.90;;;;;;5052584;28;20029;-50
2023/02/09 02:32:21;;;;;;;78.03;33.70;;;-2.90;99.90;;;;;;5046567;28;20021;-49
2023/02/09 02:35:03;;;;;;;83.50;35.63;;;-2.90;99.90;;;;;;5047797;28;20563;-46
2023/02/09 02:37:36;;;;;;;84.65;36.30;;;-2.90;99.90;;;;;;5043448;28;20017;-48
2023/02/09 02:40:28;;;;;;;89.65;36.42;;;-3.00;99.90;;;;;;5048130;28;20013;-48
2023/02/09 02:43:07;;;;;;;78.53;34.63;;;-3.00;99.90;;;;;;5045946;28;20086;-50
2023/02/09 02:45:46;;;;;;;92.93;34.85;;;-3.00;99.90;;;;;;5045531;28;20009;-51
2023/02/09 02:48:17;;;;;;;80.90;35.40;;;-3.00;99.90;;;;;;5045902;28;20497;-46
2023/02/09 02:50:55;;;;;;;84.03;34.08;;;-3.00;99.90;;;;;;5047946;28;20029;-48
2023/02/09 02:53:26;;;;;;;89.03;35.63;;;-3.10;99.90;;;;;;5057741;28;20025;-47
2023/02/09 02:55:54;;;;;;;78.20;34.78;;;-3.10;99.90;;;;;;5045498;28;20329;-47
2023/02/09 02:58:22;;;;;;;81.32;35.15;;;-3.10;99.90;;;;;;5049842;28;20017;-47
2023/02/09 03:00:51;;;;;;;80.22;33.70;;;-3.20;99.90;;;;;;5052207;28;20112;-50
2023/02/09 03:03:21;;;;;;;82.60;36.03;;;-3.30;99.90;;;;;;5047713;28;20043;-48
2023/02/09 03:05:47;;;;;;;;;;;-3.30;99.90;;;;;;5047636;28;20017;-46
2023/02/09 03:08:13;;;;;;;81.97;34.55;;;-3.30;99.90;;;;;;5047765;28;20532;-46
2023/02/09 03:10:40;;;;;;;81.75;34.13;;;-3.20;99.90;;;;;;5046264;28;20027;-48
2023/02/09 03:13:30;;;;;;;77.00;32.15;;;-3.20;99.90;;;;;;5047054;28;20053;-46
2023/02/09 03:16:26;;;;;;;74.93;32.97;;;-3.20;99.90;;;;;;5043279;28;20021;-48
2023/02/09 03:19:04;;;;;;;70.70;30.00;;;-3.10;99.90;;;;;;5045262;28;20111;-47
2023/02/09 03:21:44;;;;;;;66.68;28.83;;;-3.10;99.90;;;;;;5042087;28;20100;-47
2023/02/09 03:24:27;;;;;;;63.42;27.50;;;-2.90;99.90;;;;;;5042191;28;20386;-47
2023/02/09 03:27:24;;;;;;;63.90;28.02;;;-2.80;99.90;;;;;;5041809;28;20688;-47
2023/02/09 03:29:54;;;;;;;61.17;27.83;;;-2.60;99.90;;;;;;5041089;28;20468;-50
2023/02/09 03:32:22;;;;;;;59.25;27.83;;;-2.50;99.90;;;;;;5046010;28;20025;-49
2023/02/09 03:34:48;;;;;;;62.92;26.02;;;-2.40;99.90;;;;;;5046653;28;20131;-47
2023/02/09 03:37:14;;;;;;;58.47;25.55;;;-2.20;99.90;;;;;;5046968;28;20032;-47
2023/02/09 03:39:39;;;;;;;59.38;26.60;;;-2.20;99.90;;;;;;5047072;28;20026;-48
2023/02/09 03:42:05;;;;;;;59.63;25.13;;;-2.30;99.90;;;;;;5046567;28;20098;-47
2023/02/09 03:44:31;;;;;;;57.45;24.00;;;-2.20;99.90;;;;;;5043986;28;20029;-47
2023/02/09 03:47:02;;;;;;;54.78;25.10;;;-2.20;99.90;;;;;;5046304;28;20024;-47
2023/02/09 03:49:30;;;;;;;56.80;25.38;;;-2.20;99.90;;;;;;5047294;28;20140;-47
2023/02/09 03:51:59;;;;;;;56.47;24.23;;;-2.10;99.90;;;;;;5050732;28;20465;-46
2023/02/09 03:54:26;;;;;;;56.83;24.42;;;-2.10;99.90;;;;;;5050684;28;20102;-48
2023/02/09 03:56:51;;;;;;;53.45;23.48;;;-2.00;99.90;;;;;;5049826;28;20021;-46
2023/02/09 03:59:17;;;;;;;46.95;22.05;;;-2.00;99.90;;;;;;5053206;28;20497;-47
2023/02/09 04:01:42;;;;;;;43.58;22.05;;;-1.90;99.90;;;;;;5052506;28;20053;-49
2023/02/09 04:04:08;;;;;;;48.42;21.00;;;-1.80;99.90;;;;;;5050423;28;20035;-47
2023/02/09 04:06:34;;;;;;;51.83;21.48;;;-1.70;99.90;;;;;;5049732;28;20250;-46
2023/02/09 04:09:01;;;;;;;50.38;22.20;;;-1.70;99.90;;;;;;5051282;28;20029;-49
2023/02/09 04:11:27;;;;;;;50.80;22.73;;;-1.70;99.90;;;;;;5050380;28;20043;-49
2023/02/09 04:13:52;;;;;;;52.50;22.00;;;-1.60;99.90;;;;;;5050296;28;20371;-46
2023/02/09 04:16:18;;;;;;;51.85;22.40;;;-1.60;99.90;;;;;;5050450;28;20021;-46
2023/02/09 04:18:44;;;;;;;44.00;20.80;;;-1.60;99.90;;;;;;5051016;28;20017;-49
2023/02/09 04:21:10;;;;;;;47.13;20.98;;;-1.50;99.90;;;;;;5050310;28;20112;-49
2023/02/09 04:23:35;;;;;;;46.58;20.05;;;-1.50;99.90;;;;;;5050470;28;20108;-47
2023/02/09 04:26:01;;;;;;;48.13;21.42;;;-1.50;99.90;;;;;;5050157;28;20029;-47
2023/02/09 04:28:27;;;;;;;48.95;20.80;;;-1.50;99.90;;;;;;5058195;28;20071;-47
2023/02/09 04:30:54;;;;;;;41.08;17.83;;;-1.50;99.90;;;;;;5064759;28;20029;-47
2023/02/09 04:33:21;;;;;;;47.33;20.67;;;-1.50;99.90;;;;;;5061053;28;20029;-50
2023/02/09 04:35:47;;;;;;;45.60;20.38;;;-1.50;99.90;;;;;;5070552;28;20037;-48
2023/02/09 04:38:14;;;;;;;43.42;20.92;;;-1.50;99.90;;;;;;5071254;28;20393;-47
2023/02/09 04:40:40;;;;;;;44.45;20.17;;;-1.50;99.90;;;;;;5057994;28;20024;-47
2023/02/09 04:43:06;;;;;;;44.08;20.55;;;-1.50;99.90;;;;;;5051048;28;20047;-46
2023/02/09 04:45:31;;;;;;;49.78;21.67;;;-1.50;99.90;;;;;;5050406;28;20043;-49
2023/02/09 04:47:57;;;;;;;41.45;20.02;;;-1.50;99.90;;;;;;5050956;28;20132;-47
2023/02/09 04:50:22;;;;;;;45.05;20.50;;;-1.50;99.90;;;;;;5050519;28;20033;-47
2023/02/09 04:52:48;;;;;;;48.78;19.75;;;-1.50;99.90;;;;;;5050814;28;20656;-48
2023/02/09 04:55:13;;;;;;;47.10;20.50;;;-1.60;99.90;;;;;;5050431;28;20025;-47
2023/02/09 05:00:23;;;;;;;47.72;19.73;;;-1.60;99.90;;;;;;5050254;28;20080;-49
2023/02/09 05:02:48;;;;;;;47.30;21.92;;;-1.60;99.90;;;;;;5054212;28;20469;-46
2023/02/09 05:05:14;;;;;;;41.45;18.77;;;-1.60;99.90;;;;;;5061292;28;20020;-47
2023/02/09 05:07:40;;;;;;;46.13;20.00;;;-1.60;99.90;;;;;;5070219;28;20414;-49
2023/02/09 05:10:06;;;;;;;44.35;19.65;;;-1.60;99.90;;;;;;5063082;28;20270;-47
2023/02/09 05:12:32;;;;;;;41.35;18.60;;;-1.70;99.90;;;;;;5050044;28;20123;-49
2023/02/09 05:14:57;;;;;;;42.13;18.50;;;-1.70;99.90;;;;;;5048914;28;20059;-48
2023/02/09 05:17:23;;;;;;;37.28;17.60;;;-1.70;99.90;;;;;;5049980;28;20055;-47
2023/02/09 05:19:48;;;;;;;38.30;18.25;;;-1.70;99.90;;;;;;5049469;28;20029;-47
2023/02/09 05:22:14;;;;;;;41.03;18.50;;;-1.70;99.90;;;;;;5049957;28;20017;-47
2023/02/09 05:24:40;;;;;;;42.33;17.50;;;-1.70;99.90;;;;;;5049967;28;20031;-49
2023/02/09 05:27:05;;;;;;;41.58;17.15;;;-1.70;99.90;;;;;;5050208;28;20102;-46
2023/02/09 05:29:31;;;;;;;44.17;18.58;;;-1.70;99.90;;;;;;5050336;28;20116;-49
2023/02/09 05:31:56;;;;;;;39.65;17.83;;;-1.70;99.90;;;;;;5049296;28;20021;-48
2023/02/09 05:34:22;;;;;;;38.50;19.35;;;-1.70;99.90;;;;;;5048965;28;20025;-47
2023/02/09 05:36:47;;;;;;;50.05;20.55;;;-1.70;99.90;;;;;;5049345;28;20485;-47
2023/02/09 05:39:13;;;;;;;42.13;19.02;;;-1.80;99.90;;;;;;5060982;28;20037;-46
2023/02/09 05:44:48;;;;;;;38.53;18.58;;;-1.80;99.90;;;;;;5044919;28;20040;-46
2023/02/09 05:47:16;;;;;;;42.28;18.15;;;-1.80;99.90;;;;;;5046307;28;20025;-47
2023/02/09 05:49:42;;;;;;;41.83;18.88;;;-1.90;99.90;;;;;;5049661;28;20140;-48
2023/02/09 05:52:08;;;;;;;42.60;18.17;;;-1.90;99.90;;;;;;5045055;28;20022;-50
2023/02/09 05:54:34;;;;;;;39.10;17.83;;;-1.90;99.90;;;;;;5046258;28;20024;-46
2023/02/09 05:57:00;;;;;;;43.47;18.50;;;-1.90;99.90;;;;;;5056724;28;20125;-48
2023/02/09 05:59:25;;;;;;;35.65;17.13;;;-1.90;99.90;;;;;;5049679;28;20561;-48
2023/02/09 06:01:51;;;;;;;39.80;17.55;;;-1.90;99.90;;;;;;5065651;28;20032;-48
2023/02/09 06:04:16;;;;;;;40.33;17.65;;;-1.90;99.90;;;;;;5054491;28;20327;-48
2023/02/09 06:06:42;;;;;;;39.10;16.90;;;-2.00;99.90;;;;;;5062634;28;20418;-47
2023/02/09 06:09:07;;;;;;;38.03;16.45;;;-1.90;99.90;;;;;;5051933;28;20438;-47
2023/02/09 06:11:33;;;;;;;42.20;18.30;;;-1.90;99.90;;;;;;5049036;28;20033;-46
2023/02/09 06:13:59;;;;;;;41.03;18.45;;;-1.90;99.90;;;;;;5057839;28;20025;-46
2023/02/09 06:16:24;;;;;;;39.80;16.27;;;-1.90;99.90;;;;;;5054672;28;20100;-47
2023/02/09 06:18:50;;;;;;;36.03;15.60;;;-1.90;99.90;;;;;;5065592;28;20025;-48
2023/02/09 06:21:15;;;;;;;36.92;16.80;;;-1.90;99.90;;;;;;5049649;28;20044;-47
2023/02/09 06:23:41;;;;;;;41.67;18.13;;;-1.90;99.90;;;;;;5054527;28;20458;-50
2023/02/09 06:26:08;;;;;;;41.55;16.48;;;-1.90;99.90;;;;;;5062397;28;20027;-48
2023/02/09 06:28:34;;;;;;;41.30;18.23;;;-1.90;99.90;;;;;;5069455;28;20489;-48
2023/02/09 06:31:00;;;;;;;35.67;16.88;;;-2.00;99.90;;;;;;5068735;28;20029;-46
2023/02/09 06:33:25;;;;;;;34.28;17.67;;;-2.00;99.90;;;;;;5068907;28;20090;-46
2023/02/09 06:35:51;;;;;;;38.55;17.52;;;-2.00;99.90;;;;;;5052614;28;20078;-46
2023/02/09 06:38:16;;;;;;;42.95;17.27;;;-2.00;99.90;;;;;;5051453;28;20020;-47
2023/02/09 06:40:42;;;;;;;38.17;17.15;;;-2.00;99.90;;;;;;5050872;28;20112;-48
2023/02/09 06:43:07;;;;;;;47.35;19.15;;;-2.00;99.90;;;;;;5048144;28;20041;-45
2023/02/09 06:45:37;;;;;;;40.42;18.98;;;-2.10;99.90;;;;;;5055885;28;20032;-49
2023/02/09 06:48:04;;;;;;;39.72;19.65;;;-2.00;99.90;;;;;;5049360;28;20009;-49
2023/02/09 06:50:30;;;;;;;35.28;17.27;;;-2.00;99.90;;;;;;5052584;28;20041;-46
2023/02/09 06:52:57;;;;;;;41.83;18.38;;;-2.00;99.90;;;;;;5049616;28;20194;-47
2023/02/09 06:55:22;;;;;;;34.83;16.13;;;-2.00;99.90;;;;;;5053192;28;20081;-46
2023/02/09 06:57:48;;;;;;;37.47;16.95;;;-2.00;99.90;;;;;;5047181;28;20116;-48
2023/02/09 07:00:14;;;;;;;43.03;19.08;;;-2.00;99.90;;;;;;5048759;28;20050;-46
2023/02/09 07:02:43;;;;;;;42.08;18.83;;;-2.10;99.90;;;;;;5049107;28;20024;-47
2023/02/09 07:05:10;;;;;;;41.30;18.30;;;-2.10;99.90;;;;;;5048490;28;20087;-47
2023/02/09 07:07:36;;;;;;;38.30;18.13;;;-2.10;99.90;;;;;;5047843;28;20047;-47
2023/02/09 07:10:02;;;;;;;37.05;18.05;;;-2.00;99.90;;;;;;5049318;28;20029;-46
2023/02/09 07:12:27;;;;;;;40.28;18.05;;;-1.80;99.90;;;;;;5048112;28;20032;-46
2023/02/09 07:14:53;;;;;;;38.00;17.83;;;-1.80;99.90;;;;;;5055880;28;20033;-48
2023/02/09 07:17:18;;;;;;;35.10;16.02;;;-1.70;99.90;;;;;;5064420;28;20030;-47
2023/02/09 07:19:45;;;;;;;37.00;16.30;;;-1.70;99.90;;;;;;5066707;28;20458;-45
2023/02/09 07:22:11;;;;;;;33.58;15.02;;;-1.60;99.90;;;;;;5068505;28;20045;-47
2023/02/09 07:24:36;;;;;;;32.28;14.48;;;-1.60;99.90;;;;;;5066234;28;20064;-46
2023/02/09 07:27:05;;;;;;;35.53;14.10;;;-1.60;99.90;;;;;;5068570;28;20466;-48
2023/02/09 07:29:32;;;;;;;37.85;17.15;;;-1.60;99.90;;;;;;5040964;28;20453;-47
2023/02/09 07:31:58;;;;;;;36.30;16.95;;;-1.60;99.90;;;;;;5044582;28;20029;-47
2023/02/09 07:34:24;;;;;;;34.42;15.10;;;-1.60;99.90;;;;;;5042561;28;20032;-46
2023/02/09 07:36:49;;;;;;;36.55;15.50;;;-1.60;99.90;;;;;;5045436;28;20040;-47
2023/02/09 07:39:15;;;;;;;36.95;15.55;;;-1.60;99.90;;;;;;5044910;28;20468;-47
2023/02/09 07:41:41;;;;;;;38.00;16.30;;;-1.50;99.90;;;;;;5048039;28;20033;-48
2023/02/09 07:44:08;;;;;;;36.38;15.77;;;-1.40;99.90;;;;;;5046391;28;20390;-47
2023/02/09 07:46:34;;;;;;;38.10;16.45;;;-1.30;99.90;;;;;;5045494;28;20106;-39
2023/02/09 07:49:00;;;;;;;33.25;16.42;;;-1.10;99.90;;;;;;5047442;28;20017;-40
2023/02/09 07:51:27;;;;;;;36.88;15.65;;;-1.10;99.90;;;;;;5044351;28;20033;-38
2023/02/09 07:53:54;;;;;;;36.42;17.02;;;-1.20;99.90;;;;;;5047080;28;20017;-39
2023/02/09 07:56:21;;;;;;;33.85;16.30;;;-1.00;99.90;;;;;;5047007;28;20029;-46
2023/02/09 07:58:47;;;;;;;37.63;15.45;;;-1.00;99.90;;;;;;5042403;28;20025;-47
2023/02/09 08:01:13;;;;;;;34.25;15.95;;;-1.00;99.90;;;;;;5047335;28;20024;-48
2023/02/09 08:03:40;;;;;;;31.08;15.70;;;-0.90;99.90;;;;;;5047371;28;20033;-46
2023/02/09 08:06:20;;;;;;;36.75;16.98;;;-0.90;99.90;;;;;;5046271;28;20028;-48
2023/02/09 08:08:47;;;;;;;29.80;14.43;;;-0.80;99.90;;;;;;5049260;28;20048;-48
2023/02/09 08:11:14;;;;;;;29.20;12.95;;;-0.60;99.90;;;;;;5046909;28;20214;-46
2023/02/09 08:13:40;;;;;;;32.13;15.57;;;-0.60;99.90;;;;;;5046252;28;20025;-38
2023/02/09 08:16:10;;;;;;;31.17;15.10;;;-0.40;99.90;;;;;;5043733;28;20017;-38
2023/02/09 08:18:44;;;;;;;24.70;13.02;;;-0.30;99.90;;;;;;5050027;28;20048;-38
2023/02/09 08:21:14;;;;;;;27.38;13.73;;;-0.30;99.90;;;;;;5044641;28;20394;-38
2023/02/09 08:23:42;;;;;;;31.02;14.82;;;-0.10;99.90;;;;;;5047060;28;20036;-39
2023/02/09 08:26:11;;;;;;;29.83;13.60;;;-0.10;99.90;;;;;;5044195;28;20017;-39
2023/02/09 08:28:42;;;;;;;26.42;12.75;;;0.00;99.90;;;;;;5040623;28;20017;-39
2023/02/09 08:31:12;;;;;;;26.75;13.73;;;0.00;99.90;;;;;;5044360;28;20436;-39
2023/02/09 08:33:38;;;;;;;27.27;12.77;;;0.10;99.90;;;;;;5039279;28;20448;-39
2023/02/09 08:36:04;;;;;;;30.65;13.93;;;0.10;99.90;;;;;;5045318;28;20116;-39
2023/02/09 08:38:29;;;;;;;28.10;13.98;;;0.20;99.90;;;;;;5052988;28;20029;-39
2023/02/09 08:40:55;;;;;;;31.20;13.98;;;0.30;99.90;;;;;;5052971;28;20230;-38
2023/02/09 08:43:21;;;;;;;32.47;14.30;;;0.30;99.90;;;;;;5051846;28;20025;-38
2023/02/09 08:45:46;;;;;;;32.75;15.30;;;0.40;99.90;;;;;;5048880;28;20024;-39
2023/02/09 08:48:12;;;;;;;30.58;14.35;;;0.40;99.90;;;;;;5051417;28;20013;-39
2023/02/09 08:50:38;;;;;;;28.27;13.98;;;0.50;99.90;;;;;;5051907;28;20582;-39
2023/02/09 08:53:05;;;;;;;31.83;14.00;;;0.60;99.90;;;;;;5051294;28;20029;-39
2023/02/09 08:55:33;;;;;;;28.90;14.27;;;0.70;99.90;;;;;;5050614;28;20035;-38
2023/02/09 08:57:59;;;;;;;25.58;13.23;;;0.80;99.90;;;;;;5051248;28;20092;-39
2023/02/09 09:00:25;;;;;;;26.67;13.77;;;0.80;99.90;;;;;;5049849;28;20112;-38
2023/02/09 09:02:51;;;;;;;31.00;14.43;;;0.80;99.90;;;;;;5050598;28;20009;-38
2023/02/09 09:05:16;;;;;;;29.52;14.48;;;0.80;99.90;;;;;;5050686;28;20103;-38
2023/02/09 09:07:42;;;;;;;26.55;13.07;;;0.80;99.90;;;;;;5050734;28;20040;-39
2023/02/09 09:10:08;;;;;;;26.83;13.27;;;1.00;99.90;;;;;;5049953;28;20032;-39
2023/02/09 09:12:34;;;;;;;26.45;14.32;;;1.20;99.90;;;;;;5049861;28;20028;-39
2023/02/09 09:15:00;;;;;;;29.08;13.57;;;1.30;99.90;;;;;;5048344;28;20304;-39
2023/02/09 09:17:25;;;;;;;32.38;14.20;;;1.40;99.90;;;;;;5051109;28;20612;-39
2023/02/09 09:19:54;;;;;;;28.13;13.63;;;1.60;99.90;;;;;;5050819;28;20439;-39
2023/02/09 09:22:23;;;;;;;28.38;13.27;;;1.70;98.80;;;;;;5051084;28;20017;-40
2023/02/09 09:24:51;;;;;;;28.05;12.95;;;1.90;98.70;;;;;;5045333;28;20091;-38
2023/02/09 09:27:17;;;;;;;29.88;14.25;;;1.90;98.10;;;;;;5051497;28;20024;-38
2023/02/09 09:29:42;;;;;;;33.33;13.77;;;2.10;97.60;;;;;;5049640;28;20483;-40
2023/02/09 09:32:12;;;;;;;28.50;13.65;;;2.20;97.90;;;;;;5049723;28;20025;-39
2023/02/09 09:34:38;;;;;;;25.58;13.85;;;2.30;97.10;;;;;;5048484;28;20108;-38
2023/02/09 09:37:04;;;;;;;31.92;14.25;;;2.40;97.40;;;;;;5050136;28;20402;-38
2023/02/09 09:39:30;;;;;;;25.58;12.75;;;2.50;97.00;;;;;;5053227;28;20029;-41
2023/02/09 09:41:58;;;;;;;27.58;13.23;;;2.70;96.30;;;;;;5050934;28;20438;-38
2023/02/09 09:44:32;;;;;;;26.67;13.95;;;2.90;95.60;;;;;;5051189;28;20124;-39
2023/02/09 09:47:02;;;;;;;25.38;13.27;;;3.00;95.10;;;;;;5049954;28;20680;-38
2023/02/09 09:49:30;;;;;;;26.75;13.75;;;3.30;94.90;;;;;;5047843;28;20017;-39
2023/02/09 09:52:07;;;;;;;26.98;13.52;;;3.30;94.10;;;;;;5050455;28;20021;-40
2023/02/09 09:54:35;;;;;;;30.90;13.98;;;3.40;94.70;;;;;;5050420;28;20474;-39
2023/02/09 09:57:02;;;;;;;25.50;13.27;;;3.60;93.70;;;;;;5050433;28;20112;-39
2023/02/09 09:59:37;;;;;;;32.95;14.32;;;3.40;93.40;;;;;;5048116;28;20044;-38
2023/02/09 10:02:22;;;;;;;24.95;13.98;;;3.40;94.10;;;;;;5050933;28;20059;-38
2023/02/09 10:04:48;;;;;;;32.03;15.85;;;3.70;93.40;;;;;;5044975;28;20030;-39
2023/02/09 10:07:17;;;;;;;27.67;13.25;;;3.90;92.20;;;;;;5049375;28;20081;-39
2023/02/09 10:09:53;;;;;;;30.42;14.40;;;4.90;91.70;;;;;;5052723;28;20029;-39
2023/02/09 10:12:42;;;;;;;19.80;12.13;;;6.00;90.00;;;;;;5049247;28;20029;-39
2023/02/09 10:15:29;;;;;;;22.85;13.20;;;6.50;85.50;;;;;;5046081;28;20037;-39
2023/02/09 10:17:56;;;;;;;23.70;13.55;;;7.00;80.00;;;;;;5048984;28;20494;-38
2023/02/09 10:20:41;;;;;;;19.42;11.75;;;7.60;76.80;;;;;;5049308;28;20402;-48
2023/02/09 10:23:24;;;;;;;20.42;12.05;;;8.10;76.30;;;;;;5046308;28;20017;-46
2023/02/09 10:25:58;;;;;;;19.55;11.40;;;8.60;74.50;;;;;;5045659;28;20060;-49
2023/02/09 10:28:31;;;;;;;19.85;12.55;;;8.40;71.80;;;;;;5048634;28;20006;-45
2023/02/09 10:31:01;;;;;;;20.55;12.60;;;9.00;68.90;;;;;;5049201;28;20021;-45
2023/02/09 10:33:36;;;;;;;22.55;12.07;;;9.10;67.60;;;;;;5048432;28;20028;-46
2023/02/09 10:36:04;;;;;;;21.10;11.52;;;8.70;67.60;;;;;;5052295;28;20506;-46
2023/02/09 10:38:31;;;;;;;19.25;11.23;;;8.90;69.70;;;;;;5041424;28;20025;-46
2023/02/09 10:40:59;;;;;;;20.83;10.85;;;9.10;68.50;;;;;;5044743;28;20029;-47
2023/02/09 10:43:32;;;;;;;23.00;12.23;;;9.00;66.60;;;;;;5040700;28;20013;-48
2023/02/09 10:46:00;;;;;;;21.88;12.57;;;8.40;67.50;;;;;;5048670;28;20075;-49
2023/02/09 10:48:28;;;;;;;18.67;11.45;;;8.70;67.40;;;;;;5048669;28;20492;-44
2023/02/09 10:51:06;;;;;;;18.70;11.80;;;8.70;67.10;;;;;;5048866;28;20017;-46
2023/02/09 10:53:36;;;;;;;23.40;11.68;;;9.20;67.40;;;;;;5048277;28;20068;-46
2023/02/09 10:56:23;;;;;;;18.48;10.85;;;9.00;65.10;;;;;;5048069;28;20374;-46
2023/02/09 10:58:58;;;;;;;21.73;12.35;;;9.70;65.90;;;;;;5046508;28;20021;-47
2023/02/09 11:01:26;;;;;;;22.67;11.82;;;9.80;63.20;;;;;;5049231;28;20033;-47
2023/02/09 11:04:16;;;;;;;19.27;11.50;;;10.00;63.70;;;;;;5048698;28;20476;-50
2023/02/09 11:06:58;;;;;;;19.15;11.40;;;10.30;62.00;;;;;;5049565;28;20017;-46
2023/02/09 11:09:32;;;;;;;17.08;10.93;;;8.60;64.00;;;;;;5042592;28;20074;-47
2023/02/09 11:11:57;;;;;;;23.15;12.48;;;9.20;66.60;;;;;;5049615;28;20055;-47
2023/02/09 11:14:23;;;;;;;20.50;11.30;;;9.10;63.90;;;;;;5049541;28;20033;-47
2023/02/09 11:17:05;;;;;;;24.25;12.38;;;9.80;63.40;;;;;;5046328;28;20025;-46
2023/02/09 11:19:58;;;;;;;19.65;11.88;;;8.70;61.90;;;;;;5046666;28;20027;-49
2023/02/09 11:23:01;;;;;;;20.95;13.57;;;8.90;62.90;;;;;;5045969;28;20021;-46
2023/02/09 11:26:02;;;;;;;21.50;12.40;;;8.80;63.60;;;;;;5048892;28;20017;-49
2023/02/09 11:28:46;;;;;;;17.73;11.50;;;9.70;63.30;;;;;;5029703;28;20116;-47
2023/02/09 11:31:43;;;;;;;18.95;10.82;;;10.30;61.30;;;;;;5041551;28;20021;-47
2023/02/09 11:34:18;;;;;;;23.50;11.98;;;10.30;61.10;;;;;;5056746;28;20029;-47
2023/02/09 11:37:02;;;;;;;21.00;12.57;;;10.50;61.00;;;;;;5058346;28;20426;-46
2023/02/09 11:39:44;;;;;;;19.85;11.95;;;10.10;58.80;;;;;;5046244;28;20032;-48
2023/02/09 11:42:42;;;;;;;16.73;10.75;;;10.00;59.80;;;;;;5046672;28;20516;-46
2023/02/09 11:45:36;;;;;;;18.83;12.00;;;10.10;60.30;;;;;;5050363;28;20029;-48
2023/02/09 11:48:13;;;;;;;17.70;11.32;;;9.60;60.80;;;;;;5052463;28;20521;-48
2023/02/09 11:51:03;;;;;;;19.20;11.63;;;9.00;61.30;;;;;;5047379;28;20025;-47
2023/02/09 11:53:50;;;;;;;19.92;10.82;;;9.20;62.10;;;;;;5049041;28;20025;-47
2023/02/09 11:56:18;;;;;;;20.17;12.13;;;9.60;60.40;;;;;;5042786;28;20033;-47
2023/02/09 11:58:56;;;;;;;21.45;11.82;;;10.20;60.20;;;;;;5049134;28;20089;-47
2023/02/09 12:02:01;;;;;;;18.55;11.43;;;10.30;61.50;;;;;;5049247;28;20033;-47
2023/02/09 12:04:53;;;;;;;21.00;11.27;;;10.90;59.30;;;;;;5036794;28;20040;-48
2023/02/09 12:07:43;;;;;;;17.58;11.10;;;10.80;58.00;;;;;;5066917;28;20030;-47
2023/02/09 12:10:30;;;;;;;16.00;10.48;;;11.20;57.50;;;;;;5068471;28;20028;-47
2023/02/09 12:13:38;;;;;;;18.45;10.23;;;11.00;58.20;;;;;;5069105;28;20082;-46
2023/02/09 12:16:12;;;;;;;19.98;11.13;;;11.10;56.80;;;;;;5044097;28;20098;-47
2023/02/09 12:18:39;;;;;;;18.95;11.88;;;9.50;59.00;;;;;;5049557;28;20150;-48
2023/02/09 12:21:06;;;;;;;19.65;12.40;;;9.50;59.40;;;;;;5052834;28;20029;-47
2023/02/09 12:23:37;;;;;;;17.92;11.30;;;9.30;59.80;;;;;;5053341;28;20009;-47
2023/02/09 12:26:14;;;;;;;;;;;9.50;59.60;;;;;;5053273;28;20478;-48
2023/02/09 12:29:18;;;;;;;19.77;11.50;;;9.20;60.20;;;;;;5053464;28;20062;-50
2023/02/09 12:32:02;;;;;;;19.25;11.18;;;9.30;60.60;;;;;;5031849;28;20047;-48
2023/02/09 12:34:38;;;;;;;17.70;11.32;;;9.70;58.80;;;;;;5060247;28;20025;-45
2023/02/09 12:37:13;;;;;;;21.30;11.63;;;9.60;59.30;;;;;;5039379;28;20029;-48
2023/02/09 12:40:10;;;;;;;23.60;12.60;;;9.30;59.90;;;;;;5032606;28;20075;-48
2023/02/09 12:42:42;;;;;;;21.45;11.82;;;8.70;61.20;;;;;;5047887;28;20047;-47
2023/02/09 12:45:29;;;;;;;49.50;26.23;;;8.70;63.50;;;;;;5052197;28;20623;-46
2023/02/09 12:48:07;;;;;;;21.52;11.98;;;9.10;60.30;;;;;;5052504;28;20021;-48
2023/02/09 12:50:45;;;;;;;22.35;12.63;;;9.00;62.20;;;;;;5052365;28;20025;-46
2023/02/09 12:53:33;;;;;;;22.15;11.48;;;8.90;61.70;;;;;;5052571;28;20017;-46
2023/02/09 12:56:07;;;;;;;18.52;11.13;;;8.70;61.90;;;;;;5052137;28;20017;-49
2023/02/09 12:58:38;;;;;;;19.45;11.32;;;8.70;63.20;;;;;;5052143;28;20690;-46